sensor_id;sensor_type;location;lat;lon;timestamp;temperature;humidity
33594;DHT22;19920;52.242;20.940;2024-02-21T00:01:42;4.60;99.90
33594;DHT22;19920;52.242;20.940;2024-02-21T00:04:08;4.80;99.90
33594;DHT22;19920;52.242;20.940;2024-02-21T00:06:34;4.80;99.90
33594;DHT22;19920;52.242;20.940;2024-02-21T00:08:59;4.80;99.90
33594;DHT22;19920;52.242;20.940;2024-02-21T00:11:25;4.90;99.90
33594;DHT22;19920;52.242;20.940;2024-02-21T00:13:50;4.90;99.90
33594;DHT22;19920;52.242;20.940;2024-02-21T00:16:17;5.00;99.90
33594;DHT22;19920;52.242;20.940;2024-02-21T00:18:43;5.10;99.90
33594;DHT22;19920;52.242;20.940;2024-02-21T00:21:09;5.10;99.90
33594;DHT22;19920;52.242;20.940;2024-02-21T00:23:34;5.10;99.90
33594;DHT22;19920;52.242;20.940;2024-02-21T00:26:00;5.20;99.90
33594;DHT22;19920;52.242;20.940;2024-02-21T00:28:25;5.20;99.90
33594;DHT22;19920;52.242;20.940;2024-02-21T00:30:51;5.20;99.90
33594;DHT22;19920;52.242;20.940;2024-02-21T00:33:19;5.30;99.90
33594;DHT22;19920;52.242;20.940;2024-02-21T00:35:44;5.30;99.90
33594;DHT22;19920;52.242;20.940;2024-02-21T00:38:10;5.40;99.90
33594;DHT22;19920;52.242;20.940;2024-02-21T00:40:36;5.40;99.90
33594;DHT22;19920;52.242;20.940;2024-02-21T00:43:02;5.40;99.90
33594;DHT22;19920;52.242;20.940;2024-02-21T00:45:28;5.40;99.90
33594;DHT22;19920;52.242;20.940;2024-02-21T00:47:53;5.40;99.90
33594;DHT22;19920;52.242;20.940;2024-02-21T00:50:19;5.40;99.90
33594;DHT22;19920;52.242;20.940;2024-02-21T00:52:45;5.40;99.90
33594;DHT22;19920;52.242;20.940;2024-02-21T00:55:10;5.50;99.90
33594;DHT22;19920;52.242;20.940;2024-02-21T00:57:36;5.60;99.90
33594;DHT22;19920;52.242;20.940;2024-02-21T01:00:05;5.70;99.90
33594;DHT22;19920;52.242;20.940;2024-02-21T01:02:31;5.70;99.90
33594;DHT22;19920;52.242;20.940;2024-02-21T01:04:57;5.60;99.90
33594;DHT22;19920;52.242;20.940;2024-02-21T01:07:23;5.70;99.90
33594;DHT22;19920;52.242;20.940;2024-02-21T01:09:49;5.70;99.90
33594;DHT22;19920;52.242;20.940;2024-02-21T01:12:16;5.70;99.90
33594;DHT22;19920;52.242;20.940;2024-02-21T01:14:42;5.70;99.90
33594;DHT22;19920;52.242;20.940;2024-02-21T01:17:08;5.80;99.90
33594;DHT22;19920;52.242;20.940;2024-02-21T01:19:34;5.80;99.90
33594;DHT22;19920;52.242;20.940;2024-02-21T01:21:59;5.80;99.90
33594;DHT22;19920;52.242;20.940;2024-02-21T01:24:25;5.90;99.90
33594;DHT22;19920;52.242;20.940;2024-02-21T01:26:51;5.90;99.90
33594;DHT22;19920;52.242;20.940;2024-02-21T01:29:16;5.80;99.90
33594;DHT22;19920;52.242;20.940;2024-02-21T01:31:42;5.90;99.90
33594;DHT22;19920;52.242;20.940;2024-02-21T01:34:07;5.80;99.90
33594;DHT22;19920;52.242;20.940;2024-02-21T01:36:33;5.80;99.90
33594;DHT22;19920;52.242;20.940;2024-02-21T01:38:59;5.70;99.90
33594;DHT22;19920;52.242;20.940;2024-02-21T01:41:25;5.80;99.90
33594;DHT22;19920;52.242;20.940;2024-02-21T01:43:50;5.80;99.90
33594;DHT22;19920;52.242;20.940;2024-02-21T01:46:16;5.70;99.90
33594;DHT22;19920;52.242;20.940;2024-02-21T01:48:41;5.80;99.90
33594;DHT22;19920;52.242;20.940;2024-02-21T01:51:07;5.80;99.90
33594;DHT22;19920;52.242;20.940;2024-02-21T01:53:36;5.60;99.90
33594;DHT22;19920;52.242;20.940;2024-02-21T01:56:03;5.70;99.90
33594;DHT22;19920;52.242;20.940;2024-02-21T01:58:31;5.70;99.90
33594;DHT22;19920;52.242;20.940;2024-02-21T02:00:57;5.70;99.90
33594;DHT22;19920;52.242;20.940;2024-02-21T02:03:23;5.70;99.90
33594;DHT22;19920;52.242;20.940;2024-02-21T02:05:51;5.70;99.90
33594;DHT22;19920;52.242;20.940;2024-02-21T02:08:17;5.70;99.90
33594;DHT22;19920;52.242;20.940;2024-02-21T02:10:44;5.70;99.90
33594;DHT22;19920;52.242;20.940;2024-02-21T02:13:10;5.60;99.90
33594;DHT22;19920;52.242;20.940;2024-02-21T02:15:49;5.70;99.90
33594;DHT22;19920;52.242;20.940;2024-02-21T02:18:16;5.70;99.90
33594;DHT22;19920;52.242;20.940;2024-02-21T02:20:43;5.70;99.90
33594;DHT22;19920;52.242;20.940;2024-02-21T02:23:11;5.70;99.90
33594;DHT22;19920;52.242;20.940;2024-02-21T02:25:38;5.80;99.90
33594;DHT22;19920;52.242;20.940;2024-02-21T02:28:07;5.80;99.90
33594;DHT22;19920;52.242;20.940;2024-02-21T02:30:34;5.80;99.90
33594;DHT22;19920;52.242;20.940;2024-02-21T02:33:02;5.70;99.90
33594;DHT22;19920;52.242;20.940;2024-02-21T02:35:27;5.80;99.90
33594;DHT22;19920;52.242;20.940;2024-02-21T02:37:53;5.80;99.90
33594;DHT22;19920;52.242;20.940;2024-02-21T02:40:19;5.80;99.90
33594;DHT22;19920;52.242;20.940;2024-02-21T02:42:45;5.80;99.90
33594;DHT22;19920;52.242;20.940;2024-02-21T02:45:11;5.80;99.90
33594;DHT22;19920;52.242;20.940;2024-02-21T02:47:36;5.90;99.90
33594;DHT22;19920;52.242;20.940;2024-02-21T02:50:02;5.90;99.90
33594;DHT22;19920;52.242;20.940;2024-02-21T02:52:28;5.80;99.90
33594;DHT22;19920;52.242;20.940;2024-02-21T02:54:53;5.90;99.90
33594;DHT22;19920;52.242;20.940;2024-02-21T02:57:21;5.80;99.90
33594;DHT22;19920;52.242;20.940;2024-02-21T02:59:48;5.80;99.90
33594;DHT22;19920;52.242;20.940;2024-02-21T03:02:14;5.80;99.90
33594;DHT22;19920;52.242;20.940;2024-02-21T03:04:40;5.70;99.90
33594;DHT22;19920;52.242;20.940;2024-02-21T03:07:06;5.70;99.90
33594;DHT22;19920;52.242;20.940;2024-02-21T03:09:32;5.70;99.90
33594;DHT22;19920;52.242;20.940;2024-02-21T03:11:57;5.60;99.90
33594;DHT22;19920;52.242;20.940;2024-02-21T03:14:28;5.60;99.90
33594;DHT22;19920;52.242;20.940;2024-02-21T03:16:54;5.70;99.90
33594;DHT22;19920;52.242;20.940;2024-02-21T03:19:20;5.60;99.90
33594;DHT22;19920;52.242;20.940;2024-02-21T03:21:45;5.60;99.90
33594;DHT22;19920;52.242;20.940;2024-02-21T03:24:11;5.60;99.90
33594;DHT22;19920;52.242;20.940;2024-02-21T03:26:36;5.50;99.90
33594;DHT22;19920;52.242;20.940;2024-02-21T03:29:03;5.60;99.90
33594;DHT22;19920;52.242;20.940;2024-02-21T03:31:29;5.50;99.90
33594;DHT22;19920;52.242;20.940;2024-02-21T03:33:54;5.40;99.90
33594;DHT22;19920;52.242;20.940;2024-02-21T03:36:20;5.40;99.90
33594;DHT22;19920;52.242;20.940;2024-02-21T03:38:46;5.50;99.90
33594;DHT22;19920;52.242;20.940;2024-02-21T03:41:11;5.40;99.90
33594;DHT22;19920;52.242;20.940;2024-02-21T03:43:38;5.40;99.90
33594;DHT22;19920;52.242;20.940;2024-02-21T03:46:04;5.40;99.90
33594;DHT22;19920;52.242;20.940;2024-02-21T03:48:30;5.50;99.90
33594;DHT22;19920;52.242;20.940;2024-02-21T03:50:55;5.50;99.90
33594;DHT22;19920;52.242;20.940;2024-02-21T03:53:21;5.60;99.90
33594;DHT22;19920;52.242;20.940;2024-02-21T03:55:47;5.60;99.90
33594;DHT22;19920;52.242;20.940;2024-02-21T03:58:12;5.60;99.90
33594;DHT22;19920;52.242;20.940;2024-02-21T04:00:38;5.70;99.90
33594;DHT22;19920;52.242;20.940;2024-02-21T04:03:04;5.70;99.90
33594;DHT22;19920;52.242;20.940;2024-02-21T04:05:30;5.70;99.90
33594;DHT22;19920;52.242;20.940;2024-02-21T04:07:56;5.80;99.90
33594;DHT22;19920;52.242;20.940;2024-02-21T04:10:21;5.80;99.90
33594;DHT22;19920;52.242;20.940;2024-02-21T04:12:47;5.80;99.90
33594;DHT22;19920;52.242;20.940;2024-02-21T04:15:18;5.80;99.90
33594;DHT22;19920;52.242;20.940;2024-02-21T04:17:44;5.80;99.90
33594;DHT22;19920;52.242;20.940;2024-02-21T04:20:15;5.90;99.90
33594;DHT22;19920;52.242;20.940;2024-02-21T04:22:44;5.90;99.90
33594;DHT22;19920;52.242;20.940;2024-02-21T04:25:12;6.00;99.90
33594;DHT22;19920;52.242;20.940;2024-02-21T04:27:39;6.00;99.90
33594;DHT22;19920;52.242;20.940;2024-02-21T04:30:06;6.00;99.90
33594;DHT22;19920;52.242;20.940;2024-02-21T04:32:32;6.00;99.90
33594;DHT22;19920;52.242;20.940;2024-02-21T04:34:57;6.10;99.90
33594;DHT22;19920;52.242;20.940;2024-02-21T04:37:23;6.10;99.90
33594;DHT22;19920;52.242;20.940;2024-02-21T04:39:49;6.10;99.90
33594;DHT22;19920;52.242;20.940;2024-02-21T04:42:15;6.20;99.90
33594;DHT22;19920;52.242;20.940;2024-02-21T04:44:41;6.10;99.90
33594;DHT22;19920;52.242;20.940;2024-02-21T04:47:07;6.20;99.90
33594;DHT22;19920;52.242;20.940;2024-02-21T04:49:33;6.10;99.90
33594;DHT22;19920;52.242;20.940;2024-02-21T04:51:59;6.10;99.90
33594;DHT22;19920;52.242;20.940;2024-02-21T04:54:24;6.20;99.90
33594;DHT22;19920;52.242;20.940;2024-02-21T04:56:50;6.10;99.90
33594;DHT22;19920;52.242;20.940;2024-02-21T04:59:17;6.20;99.90
33594;DHT22;19920;52.242;20.940;2024-02-21T05:01:42;6.20;99.90
33594;DHT22;19920;52.242;20.940;2024-02-21T05:04:08;6.20;99.90
33594;DHT22;19920;52.242;20.940;2024-02-21T05:06:40;6.20;99.90
33594;DHT22;19920;52.242;20.940;2024-02-21T05:09:07;6.20;99.90
33594;DHT22;19920;52.242;20.940;2024-02-21T05:11:34;6.20;99.90
33594;DHT22;19920;52.242;20.940;2024-02-21T05:14:00;6.20;99.90
33594;DHT22;19920;52.242;20.940;2024-02-21T05:16:25;6.30;99.90
33594;DHT22;19920;52.242;20.940;2024-02-21T05:18:51;6.20;99.90
33594;DHT22;19920;52.242;20.940;2024-02-21T05:21:16;6.30;99.90
33594;DHT22;19920;52.242;20.940;2024-02-21T05:23:42;6.20;99.90
33594;DHT22;19920;52.242;20.940;2024-02-21T05:26:08;6.20;99.90
33594;DHT22;19920;52.242;20.940;2024-02-21T05:28:33;6.30;99.90
33594;DHT22;19920;52.242;20.940;2024-02-21T05:30:59;6.20;99.90
33594;DHT22;19920;52.242;20.940;2024-02-21T05:33:25;6.20;99.90
33594;DHT22;19920;52.242;20.940;2024-02-21T05:35:51;6.30;99.90
33594;DHT22;19920;52.242;20.940;2024-02-21T05:38:17;6.30;99.90
33594;DHT22;19920;52.242;20.940;2024-02-21T05:40:44;6.30;99.90
33594;DHT22;19920;52.242;20.940;2024-02-21T05:43:10;6.40;99.90
33594;DHT22;19920;52.242;20.940;2024-02-21T05:45:36;6.40;99.90
33594;DHT22;19920;52.242;20.940;2024-02-21T05:48:02;6.40;99.90
33594;DHT22;19920;52.242;20.940;2024-02-21T05:50:28;6.40;99.90
33594;DHT22;19920;52.242;20.940;2024-02-21T05:52:54;6.40;99.90
33594;DHT22;19920;52.242;20.940;2024-02-21T05:55:21;6.40;99.90
33594;DHT22;19920;52.242;20.940;2024-02-21T05:57:46;6.40;99.90
33594;DHT22;19920;52.242;20.940;2024-02-21T06:00:13;6.50;99.90
33594;DHT22;19920;52.242;20.940;2024-02-21T06:02:38;6.50;99.90
33594;DHT22;19920;52.242;20.940;2024-02-21T06:05:05;6.50;99.90
33594;DHT22;19920;52.242;20.940;2024-02-21T06:07:33;6.50;99.90
33594;DHT22;19920;52.242;20.940;2024-02-21T06:09:59;6.50;99.90
33594;DHT22;19920;52.242;20.940;2024-02-21T06:12:25;6.60;99.90
33594;DHT22;19920;52.242;20.940;2024-02-21T06:14:51;6.60;99.90
33594;DHT22;19920;52.242;20.940;2024-02-21T06:17:17;6.70;99.90
33594;DHT22;19920;52.242;20.940;2024-02-21T06:19:43;6.70;99.90
33594;DHT22;19920;52.242;20.940;2024-02-21T06:22:09;6.80;99.90
33594;DHT22;19920;52.242;20.940;2024-02-21T06:24:35;6.80;99.90
33594;DHT22;19920;52.242;20.940;2024-02-21T06:27:04;6.80;99.90
33594;DHT22;19920;52.242;20.940;2024-02-21T06:29:33;6.80;99.90
33594;DHT22;19920;52.242;20.940;2024-02-21T06:31:59;6.90;99.90
33594;DHT22;19920;52.242;20.940;2024-02-21T06:34:25;7.00;99.90
33594;DHT22;19920;52.242;20.940;2024-02-21T06:36:51;7.00;99.90
33594;DHT22;19920;52.242;20.940;2024-02-21T06:39:17;7.00;99.90
33594;DHT22;19920;52.242;20.940;2024-02-21T06:41:42;7.00;99.90
33594;DHT22;19920;52.242;20.940;2024-02-21T06:44:08;7.10;99.90
33594;DHT22;19920;52.242;20.940;2024-02-21T06:46:34;7.00;99.90
33594;DHT22;19920;52.242;20.940;2024-02-21T06:49:01;7.20;99.90
33594;DHT22;19920;52.242;20.940;2024-02-21T06:51:27;7.00;99.90
33594;DHT22;19920;52.242;20.940;2024-02-21T06:53:53;7.00;99.90
33594;DHT22;19920;52.242;20.940;2024-02-21T06:56:19;7.00;99.90
33594;DHT22;19920;52.242;20.940;2024-02-21T06:58:45;6.90;99.90
33594;DHT22;19920;52.242;20.940;2024-02-21T07:01:11;6.90;99.90
33594;DHT22;19920;52.242;20.940;2024-02-21T07:03:36;7.00;99.90
33594;DHT22;19920;52.242;20.940;2024-02-21T07:06:02;7.00;99.90
33594;DHT22;19920;52.242;20.940;2024-02-21T07:08:28;6.90;99.90
33594;DHT22;19920;52.242;20.940;2024-02-21T07:10:54;7.00;99.90
33594;DHT22;19920;52.242;20.940;2024-02-21T07:13:19;7.00;99.90
33594;DHT22;19920;52.242;20.940;2024-02-21T07:15:46;7.00;99.90
33594;DHT22;19920;52.242;20.940;2024-02-21T07:18:11;7.00;99.90
33594;DHT22;19920;52.242;20.940;2024-02-21T07:20:37;7.20;99.90
33594;DHT22;19920;52.242;20.940;2024-02-21T07:23:03;7.10;99.90
33594;DHT22;19920;52.242;20.940;2024-02-21T07:25:29;7.20;99.90
33594;DHT22;19920;52.242;20.940;2024-02-21T07:27:55;7.10;99.90
33594;DHT22;19920;52.242;20.940;2024-02-21T07:30:21;7.20;99.90
33594;DHT22;19920;52.242;20.940;2024-02-21T07:32:49;7.20;99.90
33594;DHT22;19920;52.242;20.940;2024-02-21T07:35:16;7.20;99.90
33594;DHT22;19920;52.242;20.940;2024-02-21T07:37:41;7.20;99.90
33594;DHT22;19920;52.242;20.940;2024-02-21T07:40:12;7.30;99.90
33594;DHT22;19920;52.242;20.940;2024-02-21T07:42:38;7.30;99.90
33594;DHT22;19920;52.242;20.940;2024-02-21T07:45:04;7.30;99.90
33594;DHT22;19920;52.242;20.940;2024-02-21T07:47:30;7.30;99.90
33594;DHT22;19920;52.242;20.940;2024-02-21T07:49:55;7.40;99.90
33594;DHT22;19920;52.242;20.940;2024-02-21T07:52:21;7.30;99.90
33594;DHT22;19920;52.242;20.940;2024-02-21T07:54:46;7.50;99.90
33594;DHT22;19920;52.242;20.940;2024-02-21T07:57:12;7.60;99.90
33594;DHT22;19920;52.242;20.940;2024-02-21T07:59:38;7.60;99.90
33594;DHT22;19920;52.242;20.940;2024-02-21T08:02:03;7.80;99.90
33594;DHT22;19920;52.242;20.940;2024-02-21T08:04:32;7.80;99.90
33594;DHT22;19920;52.242;20.940;2024-02-21T08:06:57;7.90;99.90
33594;DHT22;19920;52.242;20.940;2024-02-21T08:09:27;7.90;99.90
33594;DHT22;19920;52.242;20.940;2024-02-21T08:11:53;8.00;99.90
33594;DHT22;19920;52.242;20.940;2024-02-21T08:14:19;8.10;99.90
33594;DHT22;19920;52.242;20.940;2024-02-21T08:16:45;8.10;99.90
33594;DHT22;19920;52.242;20.940;2024-02-21T08:19:10;8.20;99.90
33594;DHT22;19920;52.242;20.940;2024-02-21T08:21:36;8.20;99.90
33594;DHT22;19920;52.242;20.940;2024-02-21T08:24:02;8.30;99.90
33594;DHT22;19920;52.242;20.940;2024-02-21T08:26:27;8.50;99.90
33594;DHT22;19920;52.242;20.940;2024-02-21T08:28:56;8.50;99.90
33594;DHT22;19920;52.242;20.940;2024-02-21T08:31:25;8.60;99.90
33594;DHT22;19920;52.242;20.940;2024-02-21T08:34:00;8.60;99.90
33594;DHT22;19920;52.242;20.940;2024-02-21T08:36:38;8.40;99.90
33594;DHT22;19920;52.242;20.940;2024-02-21T08:39:04;8.40;99.90
33594;DHT22;19920;52.242;20.940;2024-02-21T08:41:33;8.30;99.90
33594;DHT22;19920;52.242;20.940;2024-02-21T08:43:59;8.30;99.90
33594;DHT22;19920;52.242;20.940;2024-02-21T08:46:25;8.30;99.90
33594;DHT22;19920;52.242;20.940;2024-02-21T08:48:51;8.40;99.90
33594;DHT22;19920;52.242;20.940;2024-02-21T08:51:17;8.40;99.90
33594;DHT22;19920;52.242;20.940;2024-02-21T08:53:46;8.60;99.90
33594;DHT22;19920;52.242;20.940;2024-02-21T08:56:12;8.70;99.90
33594;DHT22;19920;52.242;20.940;2024-02-21T08:58:39;8.70;99.90
33594;DHT22;19920;52.242;20.940;2024-02-21T09:01:06;8.70;99.90
33594;DHT22;19920;52.242;20.940;2024-02-21T09:03:36;8.70;99.90
33594;DHT22;19920;52.242;20.940;2024-02-21T09:06:01;8.80;99.90
33594;DHT22;19920;52.242;20.940;2024-02-21T09:08:27;8.80;99.90
33594;DHT22;19920;52.242;20.940;2024-02-21T09:10:53;8.80;99.90
33594;DHT22;19920;52.242;20.940;2024-02-21T09:13:19;8.70;99.90
33594;DHT22;19920;52.242;20.940;2024-02-21T09:15:45;8.80;99.90
33594;DHT22;19920;52.242;20.940;2024-02-21T09:18:10;8.80;99.90
33594;DHT22;19920;52.242;20.940;2024-02-21T09:20:36;8.90;99.90
33594;DHT22;19920;52.242;20.940;2024-02-21T09:23:01;8.90;99.90
33594;DHT22;19920;52.242;20.940;2024-02-21T09:25:27;8.80;99.90
33594;DHT22;19920;52.242;20.940;2024-02-21T09:27:56;8.80;99.90
33594;DHT22;19920;52.242;20.940;2024-02-21T09:30:23;8.70;99.90
33594;DHT22;19920;52.242;20.940;2024-02-21T09:32:49;8.60;99.90
33594;DHT22;19920;52.242;20.940;2024-02-21T09:35:15;8.60;99.90
33594;DHT22;19920;52.242;20.940;2024-02-21T09:37:40;8.60;99.90
33594;DHT22;19920;52.242;20.940;2024-02-21T09:40:06;8.70;99.90
33594;DHT22;19920;52.242;20.940;2024-02-21T09:42:40;8.80;99.90
33594;DHT22;19920;52.242;20.940;2024-02-21T09:45:10;8.80;99.90
33594;DHT22;19920;52.242;20.940;2024-02-21T09:50:21;8.80;99.90
33594;DHT22;19920;52.242;20.940;2024-02-21T09:52:48;8.80;99.90
33594;DHT22;19920;52.242;20.940;2024-02-21T09:55:15;9.00;99.90
33594;DHT22;19920;52.242;20.940;2024-02-21T09:57:41;9.10;99.90
33594;DHT22;19920;52.242;20.940;2024-02-21T10:00:09;9.10;99.90
33594;DHT22;19920;52.242;20.940;2024-02-21T10:02:35;9.10;99.90
33594;DHT22;19920;52.242;20.940;2024-02-21T10:05:01;9.30;99.90
33594;DHT22;19920;52.242;20.940;2024-02-21T10:07:27;9.20;99.90
33594;DHT22;19920;52.242;20.940;2024-02-21T10:10:05;9.20;99.90
33594;DHT22;19920;52.242;20.940;2024-02-21T10:12:31;9.30;99.90
33594;DHT22;19920;52.242;20.940;2024-02-21T10:15:05;9.40;99.90
33594;DHT22;19920;52.242;20.940;2024-02-21T10:17:32;9.40;99.90
33594;DHT22;19920;52.242;20.940;2024-02-21T10:20:10;9.30;99.90
33594;DHT22;19920;52.242;20.940;2024-02-21T10:22:38;9.30;99.90
33594;DHT22;19920;52.242;20.940;2024-02-21T10:25:12;9.30;99.90
33594;DHT22;19920;52.242;20.940;2024-02-21T10:27:39;9.30;99.90
33594;DHT22;19920;52.242;20.940;2024-02-21T10:30:13;9.30;99.90
33594;DHT22;19920;52.242;20.940;2024-02-21T10:32:54;9.30;99.90
33594;DHT22;19920;52.242;20.940;2024-02-21T10:35:29;9.20;99.90
33594;DHT22;19920;52.242;20.940;2024-02-21T10:37:56;9.30;99.90
33594;DHT22;19920;52.242;20.940;2024-02-21T10:40:29;9.30;99.90
33594;DHT22;19920;52.242;20.940;2024-02-21T10:42:58;9.30;99.90
33594;DHT22;19920;52.242;20.940;2024-02-21T10:45:38;9.30;99.90
33594;DHT22;19920;52.242;20.940;2024-02-21T10:48:25;9.30;99.90
33594;DHT22;19920;52.242;20.940;2024-02-21T10:56:30;9.40;99.90
33594;DHT22;19920;52.242;20.940;2024-02-21T10:59:01;9.40;99.90
33594;DHT22;19920;52.242;20.940;2024-02-21T11:01:28;9.30;99.90
33594;DHT22;19920;52.242;20.940;2024-02-21T11:04:06;9.40;99.90
33594;DHT22;19920;52.242;20.940;2024-02-21T11:06:35;9.30;99.90
33594;DHT22;19920;52.242;20.940;2024-02-21T11:11:37;9.40;99.90
33594;DHT22;19920;52.242;20.940;2024-02-21T11:16:39;9.50;99.90
33594;DHT22;19920;52.242;20.940;2024-02-21T11:19:24;9.40;99.90
33594;DHT22;19920;52.242;20.940;2024-02-21T11:21:51;9.40;99.90
33594;DHT22;19920;52.242;20.940;2024-02-21T11:24:30;9.40;99.90
33594;DHT22;19920;52.242;20.940;2024-02-21T11:27:18;9.20;99.90
33594;DHT22;19920;52.242;20.940;2024-02-21T11:29:55;9.10;99.90
33594;DHT22;19920;52.242;20.940;2024-02-21T11:32:21;9.10;99.90
33594;DHT22;19920;52.242;20.940;2024-02-21T11:34:57;9.10;99.90
33594;DHT22;19920;52.242;20.940;2024-02-21T11:37:27;9.20;99.90
33594;DHT22;19920;52.242;20.940;2024-02-21T11:39:54;9.20;99.90
33594;DHT22;19920;52.242;20.940;2024-02-21T11:42:19;9.20;99.90
33594;DHT22;19920;52.242;20.940;2024-02-21T11:44:45;9.10;99.90
33594;DHT22;19920;52.242;20.940;2024-02-21T11:47:11;9.00;99.90
33594;DHT22;19920;52.242;20.940;2024-02-21T11:49:45;8.90;99.90
33594;DHT22;19920;52.242;20.940;2024-02-21T11:52:11;8.90;99.90
33594;DHT22;19920;52.242;20.940;2024-02-21T11:54:37;9.00;99.90
33594;DHT22;19920;52.242;20.940;2024-02-21T11:57:03;9.00;99.90
33594;DHT22;19920;52.242;20.940;2024-02-21T11:59:33;9.10;99.90
33594;DHT22;19920;52.242;20.940;2024-02-21T12:02:00;9.10;99.90
33594;DHT22;19920;52.242;20.940;2024-02-21T12:04:26;9.10;99.90
33594;DHT22;19920;52.242;20.940;2024-02-21T12:06:54;9.00;99.90
33594;DHT22;19920;52.242;20.940;2024-02-21T12:09:22;9.10;99.90
33594;DHT22;19920;52.242;20.940;2024-02-21T12:14:26;9.00;99.90
33594;DHT22;19920;52.242;20.940;2024-02-21T12:16:51;9.00;99.90
33594;DHT22;19920;52.242;20.940;2024-02-21T12:19:17;8.90;99.90
33594;DHT22;19920;52.242;20.940;2024-02-21T12:21:43;8.80;99.90
33594;DHT22;19920;52.242;20.940;2024-02-21T12:24:22;8.80;99.90
33594;DHT22;19920;52.242;20.940;2024-02-21T12:26:52;8.80;99.90
33594;DHT22;19920;52.242;20.940;2024-02-21T12:29:21;8.70;99.90
33594;DHT22;19920;52.242;20.940;2024-02-21T12:31:48;8.70;99.90
33594;DHT22;19920;52.242;20.940;2024-02-21T12:34:15;8.70;99.90
33594;DHT22;19920;52.242;20.940;2024-02-21T12:36:42;8.70;99.90
33594;DHT22;19920;52.242;20.940;2024-02-21T12:39:08;8.80;99.90
33594;DHT22;19920;52.242;20.940;2024-02-21T12:41:35;8.80;99.90
33594;DHT22;19920;52.242;20.940;2024-02-21T12:44:09;8.80;99.90
33594;DHT22;19920;52.242;20.940;2024-02-21T12:46:36;8.70;99.90
33594;DHT22;19920;52.242;20.940;2024-02-21T12:49:02;8.60;99.90
33594;DHT22;19920;52.242;20.940;2024-02-21T12:51:32;8.60;99.90
33594;DHT22;19920;52.242;20.940;2024-02-21T12:53:57;8.60;99.90
33594;DHT22;19920;52.242;20.940;2024-02-21T12:56:24;8.60;99.90
33594;DHT22;19920;52.242;20.940;2024-02-21T12:58:52;8.60;99.90
33594;DHT22;19920;52.242;20.940;2024-02-21T13:01:18;8.60;99.90
33594;DHT22;19920;52.242;20.940;2024-02-21T13:03:44;8.60;99.90
33594;DHT22;19920;52.242;20.940;2024-02-21T13:06:09;8.60;99.90
33594;DHT22;19920;52.242;20.940;2024-02-21T13:08:38;8.70;99.90
33594;DHT22;19920;52.242;20.940;2024-02-21T13:11:05;8.60;99.90
33594;DHT22;19920;52.242;20.940;2024-02-21T13:13:31;8.60;99.90
33594;DHT22;19920;52.242;20.940;2024-02-21T13:15:57;8.70;99.90
33594;DHT22;19920;52.242;20.940;2024-02-21T13:18:23;8.70;99.90
33594;DHT22;19920;52.242;20.940;2024-02-21T13:20:49;8.70;99.90
33594;DHT22;19920;52.242;20.940;2024-02-21T13:23:15;8.60;99.90
33594;DHT22;19920;52.242;20.940;2024-02-21T13:25:40;8.70;99.90
33594;DHT22;19920;52.242;20.940;2024-02-21T13:28:07;8.70;99.90
33594;DHT22;19920;52.242;20.940;2024-02-21T13:30:32;8.70;99.90
33594;DHT22;19920;52.242;20.940;2024-02-21T13:32:58;8.70;99.90
33594;DHT22;19920;52.242;20.940;2024-02-21T13:35:24;8.70;99.90
33594;DHT22;19920;52.242;20.940;2024-02-21T13:37:49;8.70;99.90
33594;DHT22;19920;52.242;20.940;2024-02-21T13:40:15;8.70;99.90
33594;DHT22;19920;52.242;20.940;2024-02-21T13:42:42;8.60;99.90
33594;DHT22;19920;52.242;20.940;2024-02-21T13:45:09;8.60;99.90
33594;DHT22;19920;52.242;20.940;2024-02-21T13:47:34;8.60;99.90
33594;DHT22;19920;52.242;20.940;2024-02-21T13:50:02;8.50;99.90
33594;DHT22;19920;52.242;20.940;2024-02-21T13:52:30;8.50;99.90
33594;DHT22;19920;52.242;20.940;2024-02-21T13:54:56;8.60;99.90
33594;DHT22;19920;52.242;20.940;2024-02-21T13:57:22;8.60;99.90
33594;DHT22;19920;52.242;20.940;2024-02-21T13:59:47;8.70;99.90
33594;DHT22;19920;52.242;20.940;2024-02-21T14:02:15;8.80;99.90
33594;DHT22;19920;52.242;20.940;2024-02-21T14:04:40;8.80;99.90
33594;DHT22;19920;52.242;20.940;2024-02-21T14:07:06;8.80;99.90
33594;DHT22;19920;52.242;20.940;2024-02-21T14:09:32;8.90;99.90
33594;DHT22;19920;52.242;20.940;2024-02-21T14:11:59;8.90;99.90
33594;DHT22;19920;52.242;20.940;2024-02-21T14:14:25;9.00;99.90
33594;DHT22;19920;52.242;20.940;2024-02-21T14:16:50;8.80;99.90
33594;DHT22;19920;52.242;20.940;2024-02-21T14:19:16;8.80;99.90
33594;DHT22;19920;52.242;20.940;2024-02-21T14:21:44;8.80;99.90
33594;DHT22;19920;52.242;20.940;2024-02-21T14:24:10;8.90;99.90
33594;DHT22;19920;52.242;20.940;2024-02-21T14:26:37;8.90;99.90
33594;DHT22;19920;52.242;20.940;2024-02-21T14:29:03;8.90;99.90
33594;DHT22;19920;52.242;20.940;2024-02-21T14:31:31;8.90;99.90
33594;DHT22;19920;52.242;20.940;2024-02-21T14:33:57;8.90;99.90
33594;DHT22;19920;52.242;20.940;2024-02-21T14:36:23;8.80;99.90
33594;DHT22;19920;52.242;20.940;2024-02-21T14:38:49;8.80;99.90
33594;DHT22;19920;52.242;20.940;2024-02-21T14:41:15;8.80;99.90
33594;DHT22;19920;52.242;20.940;2024-02-21T14:43:40;8.80;99.90
33594;DHT22;19920;52.242;20.940;2024-02-21T14:46:06;8.70;99.90
33594;DHT22;19920;52.242;20.940;2024-02-21T14:48:32;8.70;99.90
33594;DHT22;19920;52.242;20.940;2024-02-21T14:50:58;8.50;99.90
33594;DHT22;19920;52.242;20.940;2024-02-21T14:53:24;8.50;99.90
33594;DHT22;19920;52.242;20.940;2024-02-21T14:55:50;8.50;99.90
33594;DHT22;19920;52.242;20.940;2024-02-21T14:58:16;8.50;99.90
33594;DHT22;19920;52.242;20.940;2024-02-21T15:00:43;8.50;99.90
33594;DHT22;19920;52.242;20.940;2024-02-21T15:03:09;8.50;99.90
33594;DHT22;19920;52.242;20.940;2024-02-21T15:05:36;8.40;99.90
33594;DHT22;19920;52.242;20.940;2024-02-21T15:08:03;8.40;99.90
33594;DHT22;19920;52.242;20.940;2024-02-21T15:10:28;8.40;99.90
33594;DHT22;19920;52.242;20.940;2024-02-21T15:12:54;8.40;99.90
33594;DHT22;19920;52.242;20.940;2024-02-21T15:15:20;8.30;99.90
33594;DHT22;19920;52.242;20.940;2024-02-21T15:17:46;8.30;99.90
33594;DHT22;19920;52.242;20.940;2024-02-21T15:20:11;8.40;99.90
33594;DHT22;19920;52.242;20.940;2024-02-21T15:22:37;8.30;99.90
33594;DHT22;19920;52.242;20.940;2024-02-21T15:25:03;8.30;99.90
33594;DHT22;19920;52.242;20.940;2024-02-21T15:27:32;8.30;99.90
33594;DHT22;19920;52.242;20.940;2024-02-21T15:29:57;8.20;99.90
33594;DHT22;19920;52.242;20.940;2024-02-21T15:32:23;8.20;99.90
33594;DHT22;19920;52.242;20.940;2024-02-21T15:34:49;8.20;99.90
33594;DHT22;19920;52.242;20.940;2024-02-21T15:37:14;8.30;99.90
33594;DHT22;19920;52.242;20.940;2024-02-21T15:39:41;8.20;99.90
33594;DHT22;19920;52.242;20.940;2024-02-21T15:42:08;8.30;99.90
33594;DHT22;19920;52.242;20.940;2024-02-21T15:44:34;8.30;99.90